Alpha Loyalty — 9HA3285 — position and weather

sailwx.info

Track history (hours):
 
Tides and Currents Weather Stations Pressure Air Temp Water Temp Dewpoint Dewpoint Depression Visibility Wind Speed Wind Dir Waves Ship Positions

Alpha Loyalty

Last reported at 2017-Nov-09 16:54 UTC. Time now 2017-Dec-17 15:57 UTC.
Position S 19°05' E 113°28'.
Warning: this ship's position is 37 days out of date.

Length 225 m; draft 6.6 m.

Type: Cargo ship. MMSI: 229380000.

Date/timePositionNaut miles runAvg speedWind from/ knotsBaromVisibWave heightAir tempDewpointWater temp
2017-Nov-09 16:54S 19°05' E 113°28'712.3
2017-Nov-09 16:17S 18°58' E 113°30'1912.4
2017-Nov-09 14:45S 18°39' E 113°34'3312.3
2017-Nov-09 12:04S 18°07' E 113°41'2012.8
2017-Nov-09 10:28S 17°47' E 113°45'1712.4
2017-Nov-09 09:03S 17°30' E 113°49'4412.2
2017-Nov-09 05:28S 16°47' E 113°59'1011.8
2017-Nov-09 04:39S 16°38' E 114°01'312.0
2017-Nov-09 04:25S 16°35' E 114°02'511.8
2017-Nov-09 04:00S 16°30' E 114°03'1311.8
2017-Nov-09 02:53S 16°17' E 114°05'511.9
2017-Nov-09 02:28S 16°12' E 114°06'511.5
2017-Nov-09 02:01S 16°07' E 114°07'712.2
2017-Nov-09 01:24S 16°00' E 114°09'2613.0
2017-Nov-08 23:26S 15°35' E 114°15'  
Track history (hours):
 
Tides and Currents Weather Stations Pressure Air Temp Water Temp Dewpoint Dewpoint Depression Visibility Wind Speed Wind Dir Waves Ship Positions

Alpha Loyalty

Last reported at 2017-Nov-09 16:54 UTC. Time now 2017-Dec-17 15:57 UTC.
Position S 19°05' E 113°28'.
Warning: this ship's position is 37 days out of date.

Length 225 m; draft 6.6 m.

Type: Cargo ship. MMSI: 229380000.

Date/timePositionNaut miles runAvg speedWind from/ knotsBaromVisibWave heightAir tempDewpointWater temp
2017-Nov-09 16:54S 19°05' E 113°28'712.3
2017-Nov-09 16:17S 18°58' E 113°30'1912.4
2017-Nov-09 14:45S 18°39' E 113°34'3312.3
2017-Nov-09 12:04S 18°07' E 113°41'2012.8
2017-Nov-09 10:28S 17°47' E 113°45'1712.4
2017-Nov-09 09:03S 17°30' E 113°49'4412.2
2017-Nov-09 05:28S 16°47' E 113°59'1011.8
2017-Nov-09 04:39S 16°38' E 114°01'312.0
2017-Nov-09 04:25S 16°35' E 114°02'511.8
2017-Nov-09 04:00S 16°30' E 114°03'1311.8
2017-Nov-09 02:53S 16°17' E 114°05'511.9
2017-Nov-09 02:28S 16°12' E 114°06'511.5
2017-Nov-09 02:01S 16°07' E 114°07'712.2
2017-Nov-09 01:24S 16°00' E 114°09'2613.0
2017-Nov-08 23:26S 15°35' E 114°15'  

Dump ship's entire track history